Marriott-Slaterville City, Utah
Current Conditions -  °F | °C
As of 4:53 PM on Thursday 27 Nov 2014 (Local Time) from KOGD Reporting Station
Clear Clear  
Wind Chill: 53°   Ceiling: Unl
Heat Index: 53°   Visibility: 10mi
Dew Point: 26°   Wind: 5mph
Humidity: 35%   Direction: 170°S
Pressure: 30.18"   Gusts: NA
Location:  41.2701°N, 112.135°W
Report Text: KOGD 272353Z AUTO 17004KT 10SM CLR 12/M03 A3018 RMK AO2 SLP204 T01171033 10150 20089 58012 TSNO
Loading
Personal Weather Stations






























Interactive Weather Map New forecast layout! Learn more

10-Day Weather Forecast

Advertisements
Track Severe Weather on mobile